Portada
METAR-TAF:

METAR-TAF

Aeroports :

Biak, Indonèsia

latitud: 01-11S, longitud: 136-07E, altitud: 11 m

Observació

L'informe es va fer fa 2 hores i 7 minuts, a les 07:00 UTC
Vent 4 kt del Oest/Sud-Oest
Temperatura 31°C
Humitat 71%
Pressió 1006 hPa
Visibilitat 10 km o més
Escasses núvols a una alçada de 1800 ft

METAR: WABB 120700Z 25004KT 9999 FEW018 31/25 Q1006 NOSIG

Hora: 16:07 (09:07 UTC)

Pronòstic

L'informe es va fer fa 4 hores i 7 minuts, a les 05:00 UTC
Pronòstic vàlid del 12 a les 06 UTC al 13 a les 12 UTC
Vent 6 kt del Oest
Visibilitat 10 km o més
Escasses núvols a una alçada de 1800 ft
Temporalment
l' 12 a les 06 UTC al 12 a les 08 UTC
Visibilitat: 8000 m
Escasses núvols a una alçada de 1700 ft, Cumulonimbus.
pluja
Evolucionant progressivament
l' 12 a les 12 UTC al 12 a les 14 UTC
Vent kt del Nord

TAF: WABB 120500Z 1206/1312 27006KT 9999 FEW018 TEMPO 1206/1208 8000 RA FEW017CB BECMG 1212/1214 00000KT

Observacions i pronòstics meteorològics de més de 4000 aeroports (METAR i TAF).

Les estacions disponibles són els punts grocs i vermells al mapa.

Posi el ratolí al punt desitjat per veure el nom de l'estació.

Feu clic per veure les observacions i els pronòstics meteorològics.

Per canviar el mapa: feu clic els botons verds amb una creu de color negre per apropar; al botó verd amb un guió per allunyar la imatge; o en les fletxes verdes per a mapes adjacents.


METAR-TAF: